Aérodrome :
LOGIN :

S'inscrire | Disclaimer

   EN    FR    IT 

 










Légende :    VFR   VFR Marginal   IFR   IFR Intensif   IFR Très Intensif
Visi : 
Plafond : 
>= 8 km
>= 3000ft
5 à 8 km
1000 à 3000 ft
1500m à 5 km
500 à 1000 ft
800 à 1500m
200 à 500 ft
< 800m
< 200 ft
Symboles :   Orages  Brouillard  Fortes neiges  Fortes précipitations  Vent > 20 kt
SIGMETs :   Divers  Orages  Givrage  Turbulence  Onde Orograph.  Cendres Volcan.







- Altitude de l'aérodrome : 2776 ft
- Code IATA : VLL


LEVD - Valladolid

DERNIER METAR :
  • 011730Z 24012KT 9999 SCT042 10/04 Q1019

METARs EXPIRÉS :
  • 011700Z 25015KT 9999 SCT029 BKN036 10/04 Q1019
  • 011630Z 25015KT 9999 SCT028 BKN035 10/04 Q1019
  • 011600Z 26014KT 9999 SCT025 BKN033 11/04 Q1019
  • 011530Z 26013KT 9999 BKN030 12/05 Q1019
  • 011500Z 27014KT 9999 BKN030 11/05 Q1019

TAF TAF LEVD
Valide du 01 à 18h jusqu'au 02 à 18h UTC


011700Z 0118/0218 26007KT 9999 FEW015 BKN030 TX15/0215Z TN02/0207Z
PROB40
TEMPO 0204/0210 1500 BR BKN004
PROB40
TEMPO 0205/0209 0500 FG VV001
Pas de NOTAMs connus pour ce terrain.



MET'MAP, la Météo Aéronautique d'un coup d'oeil ! - Copyright ORBIFLY Décembre 2007 - Disclaimer

ORBIFLY MET'MAP TEAM :

Programmation & Développement : Alexandra Zaïnal
Conception & Développement : Baudouin d'Aumeries
Co-Programmation & Développement : Marc-Olivier Méhu
Soutien technique & logistique : Manuel Goepfert

Contact : metmap@orbifly.com




SOURCES & CREDITS :

   NOAA